Terminal Aerodrome Forecast
Issued by NWS Shreveport, LA

Home | Current Version | Previous Version | Text Only | Print | Product List | Glossary On
Versions: 1 2 3 4 5 6 7 8 9 10 11 12 13 14 15 16
121
FTUS44 KSHV 270528
TAFSHV
TAF
KSHV 270528Z 2706/2806 VRB03KT P6SM FEW150 BKN280
     FM270800 09002KT 6SM BR SCT070 BKN280
      TEMPO 2708/2710 5SM BR SCT070 BKN280
     FM271000 VRB03KT 3SM BR SCT060 SCT280
      TEMPO 2712/2714 BKN015 OVC045
     FM271400 08004KT P6SM BKN045
     FM271900 09007KT P6SM BKN060
     FM280000 11006KT P6SM OVC100=

USA.gov is the U.S. government's official web portal to all federal, state and local government web resources and services.